Nearby METAR Reports

 

KHOB - Hobbs, New Mexico, USA
Distance from station: S 40mi, 65km
Updated: Fri, 26-Feb-2021 10:50am MST
Clear
Clear
 Wind from SW
Wind: SW 9 mph , 15 km/h, Gust: 17 mph , 28 km/h
Temperature: 57°F , 14°C
Dew Point: 27°F , -3°C
Humidity: 31%
Barometer: 29.95 inHg , 1014.2 hPa
Clouds: Clear
Visibility: 10 miles , 16 km
2021/02/26 17:50 KHOB 261750Z 22008G15KT 10SM SKC 14/M03 A2995
KGNC - Seminole, Texas, USA
Distance from station: SE 55mi, 89km
Updated: Fri, 26-Feb-2021 11:15am MST
Clear
Clear
 Wind from WSW
Wind: WSW 8 mph , 13 km/h, Gust: 18 mph , 30 km/h
Temperature: 59°F , 15°C
Dew Point: 28°F , -2°C
Humidity: 31%
Barometer: 29.98 inHg , 1015.2 hPa
Clouds: Clear
Visibility: 10 miles , 16 km
2021/02/26 18:15 KGNC 261815Z AUTO 25007G16KT 10SM CLR 15/M02 A2998 RMK AO2 T01491021
 
KROW - Roswell, New Mexico, USA
Distance from station: W 67mi, 108km
Updated: Fri, 26-Feb-2021 10:51am MST
Clear
Clear
 Wind from varies
Wind: varies 5 mph , 7 km/h
Temperature: 50°F , 10°C
Wind Chill: 48°F , 9°C
Dew Point: 27°F , -3°C
Humidity: 40%
Barometer: 29.94 inHg , 1013.9 hPa
Clouds: Clear
Visibility: 10 miles , 16 km
2021/02/26 17:51 KROW 261751Z VRB04KT 10SM CLR 10/M03 A2994 RMK AO2 SLP118 T01001033 10100 21033 58009
KATS - Artesia, New Mexico, USA
Distance from station: WSW 71mi, 114km
Updated: Fri, 26-Feb-2021 11:35am MST
Clear
Clear
 Wind from calm
Wind: Calm
Temperature: 52°F , 11°C
Dew Point: 27°F , -3°C
Humidity: 38%
Barometer: 29.96 inHg , 1014.6 hPa
Clouds: Clear
Visibility: 10 miles , 16 km
2021/02/26 18:35 KATS 261835Z AUTO 00000KT 10SM CLR 11/M03 A2996 RMK AO2
 
KCVS - Cannon AFB,Clovis, New Mexico, USA
Distance from station: 0 78mi, 125km
Updated: Fri, 26-Feb-2021 10:56am MST
Clear
Clear
 Wind from W
Wind: W 24 mph , 39 km/h, Gust: 35 mph , 56 km/h
Temperature: 55°F , 13°C
Dew Point: 14°F , -10°C
Humidity: 19%
Barometer: 29.89 inHg , 1012.2 hPa
Clouds: Clear
Visibility: 10 miles , 16 km
2021/02/26 17:56 KCVS 261756Z AUTO 28021G30KT 10SM CLR 13/M10 A2989 RMK AO2 PK WND 26031/28 SLP112 T01301101 10130 21033 $
KE11 - Andrews, Texas, USA
Distance from station: SE 78mi, 126km
Updated: Fri, 26-Feb-2021 11:15am MST
Clear
Clear
 Wind from WSW
Wind: WSW 14 mph , 22 km/h, Gust: 20 mph , 31 km/h
Temperature: 61°F , 16°C
Dew Point: 28°F , -2°C
Humidity: 29%
Barometer: 29.96 inHg , 1014.6 hPa
Clouds: Clear
Visibility: 10 miles , 16 km
2021/02/26 18:15 KE11 261815Z AUTO 24012G17KT 10SM CLR 16/M02 A2996 RMK AO2 T01601023
 
KCNM - Carlsbad, New Mexico, USA
Distance from station: SW 82mi, 132km
Updated: Fri, 26-Feb-2021 10:53am MST

 
Barometer: 29.94 inHg , 1013.9 hPa
2021/02/26 17:53 KCNM 261753Z AUTO A2994 RMK AO2 SLPNO 10106 21039 58010 PWINO FZRANO $
KCVN - Clovis Muni, New Mexico, USA
Distance from station: N 83mi, 133km
Updated: Fri, 26-Feb-2021 10:56am MST
Clear
Clear
 Wind from W
Wind: W 26 mph , 43 km/h, Gust: 32 mph , 52 km/h
Temperature: 57°F , 14°C
Dew Point: 14°F , -10°C
Humidity: 18%
Barometer: 29.88 inHg , 1011.9 hPa
Clouds: Clear
Visibility: 10 miles , 16 km
2021/02/26 17:56 KCVN 261756Z AUTO 26023G28KT 10SM CLR 14/M10 A2988 RMK AO2 PK WND 25030/1718 SLP120 T01391100 10139 21056 58010
 
KLBB - Lubbock, Texas, USA
Distance from station: ENE 92mi, 149km
Updated: Fri, 26-Feb-2021 10:53am MST
Partly cloudy
Partly cloudy
 Wind from SW
Wind: SW 18 mph , 30 km/h
Temperature: 55°F , 13°C
Dew Point: 28°F , -2°C
Humidity: 36%
Barometer: 29.91 inHg , 1012.9 hPa
Clouds: Partly cloudy
Visibility: 10 miles , 16 km
Cloud details: Partly cloudy 25000 ft
2021/02/26 17:53 KLBB 261753Z 23016KT 10SM SCT250 13/M02 A2991 RMK AO2 SLP112 T01331022 10133 21033 58015
KINK - Wink, Texas, USA
Distance from station: S 101mi, 163km
Updated: Fri, 26-Feb-2021 10:53am MST
Clear
Clear
 Wind from SSE
Wind: SSE 5 mph , 7 km/h
Temperature: 55°F , 13°C
Dew Point: 32°F , 0°C
Humidity: 41%
Barometer: 29.96 inHg , 1014.6 hPa
Clouds: Clear
2021/02/26 17:53 KINK 261753Z AUTO 15004KT CLR 13/00 A2996 RMK AO2 SLP136 T01280000 10128 21033 58006
 
KMAF - Midland, Texas, USA
Distance from station: SE 111mi, 179km
Updated: Fri, 26-Feb-2021 10:53am MST
Clear
Clear
 Wind from WSW
Wind: WSW 10 mph , 17 km/h
Temperature: 54°F , 12°C
Dew Point: 28°F , -2°C
Humidity: 38%
Barometer: 29.97 inHg , 1014.9 hPa
Clouds: Clear
Visibility: 10 miles , 16 km
2021/02/26 17:53 KMAF 261753Z 25009KT 10SM CLR 12/M02 A2997 RMK AO2 SLP132 T01221022 10128 21006 58007
KSRR - Sierra B/Ruidoso, New Mexico, USA
Distance from station: W 127mi, 204km
Updated: Fri, 26-Feb-2021 11:15am MST
Clear
Clear
 Wind from WNW
Wind: WNW 22 mph , 35 km/h, Gust: 33 mph , 54 km/h
Temperature: 52°F , 11°C
Dew Point: -2°F , -19°C
Humidity: 10%
Barometer: 29.98 inHg , 1015.2 hPa
Clouds: Clear
Visibility: 10 miles , 16 km
2021/02/26 18:15 KSRR 261815Z AUTO 30019G29KT 10SM CLR 11/M19 A2998 RMK AO2
 
KGDP - Guadalupe Pass, Texas, USA
Distance from station: SW 130mi, 209km
Updated: Fri, 26-Feb-2021 10:51am MST
Clear
Clear
 Wind from WSW
Wind: WSW 38 mph , 61 km/h, Gust: 43 mph , 69 km/h
Temperature: 54°F , 12°C
Dew Point: 14°F , -10°C
Humidity: 21%
Barometer: 29.99 inHg , 1015.6 hPa
Clouds: Clear
2021/02/26 17:51 KGDP 261751Z AUTO 24033G37KT CLR 12/M10 A2999 RMK AO2 PK WND 23038/1725 SLP131 T01221100 10122 21006 51006